sensor_id;sensor_type;location;lat;lon;timestamp;P1;P2;P0
47079;PMS5003;33067;49.296;14.470;2022-10-31T00:01:39;68;61;
47079;PMS5003;33067;49.296;14.470;2022-10-31T00:04:05;65;61;
47079;PMS5003;33067;49.296;14.470;2022-10-31T00:06:30;61;58;
47079;PMS5003;33067;49.296;14.470;2022-10-31T00:08:56;74;64;
47079;PMS5003;33067;49.296;14.470;2022-10-31T00:11:21;62;60;
47079;PMS5003;33067;49.296;14.470;2022-10-31T00:13:46;70;64;
47079;PMS5003;33067;49.296;14.470;2022-10-31T00:16:14;71;66;
47079;PMS5003;33067;49.296;14.470;2022-10-31T00:18:38;49;47;
47079;PMS5003;33067;49.296;14.470;2022-10-31T00:21:03;59;54;
47079;PMS5003;33067;49.296;14.470;2022-10-31T00:23:29;56;50;
47079;PMS5003;33067;49.296;14.470;2022-10-31T00:25:59;65;53;
47079;PMS5003;33067;49.296;14.470;2022-10-31T00:28:20;48;39;
47079;PMS5003;33067;49.296;14.470;2022-10-31T00:30:45;49;45;
47079;PMS5003;33067;49.296;14.470;2022-10-31T00:33:11;64;55;
47079;PMS5003;33067;49.296;14.470;2022-10-31T00:35:36;64;59;
47079;PMS5003;33067;49.296;14.470;2022-10-31T00:38:01;48;47;
47079;PMS5003;33067;49.296;14.470;2022-10-31T00:40:27;47;43;
47079;PMS5003;33067;49.296;14.470;2022-10-31T00:42:52;49;45;
47079;PMS5003;33067;49.296;14.470;2022-10-31T00:45:18;52;49;
47079;PMS5003;33067;49.296;14.470;2022-10-31T00:47:44;49;47;
47079;PMS5003;33067;49.296;14.470;2022-10-31T00:50:09;55;50;
47079;PMS5003;33067;49.296;14.470;2022-10-31T00:52:34;57;49;
47079;PMS5003;33067;49.296;14.470;2022-10-31T00:55:00;58;54;
47079;PMS5003;33067;49.296;14.470;2022-10-31T00:57:25;59;50;
47079;PMS5003;33067;49.296;14.470;2022-10-31T00:59:50;50;47;
47079;PMS5003;33067;49.296;14.470;2022-10-31T01:02:16;59;50;
47079;PMS5003;33067;49.296;14.470;2022-10-31T01:04:42;59;55;
47079;PMS5003;33067;49.296;14.470;2022-10-31T01:07:07;61;57;
47079;PMS5003;33067;49.296;14.470;2022-10-31T01:09:33;59;51;
47079;PMS5003;33067;49.296;14.470;2022-10-31T01:11:58;55;49;
47079;PMS5003;33067;49.296;14.470;2022-10-31T01:14:24;55;51;
47079;PMS5003;33067;49.296;14.470;2022-10-31T01:16:49;59;58;
47079;PMS5003;33067;49.296;14.470;2022-10-31T01:19:15;60;54;
47079;PMS5003;33067;49.296;14.470;2022-10-31T01:21:40;52;50;
47079;PMS5003;33067;49.296;14.470;2022-10-31T01:24:05;52;50;
47079;PMS5003;33067;49.296;14.470;2022-10-31T01:26:32;50;47;
47079;PMS5003;33067;49.296;14.470;2022-10-31T01:28:57;50;47;
47079;PMS5003;33067;49.296;14.470;2022-10-31T01:31:22;51;46;
47079;PMS5003;33067;49.296;14.470;2022-10-31T01:33:47;79;74;
47079;PMS5003;33067;49.296;14.470;2022-10-31T01:36:14;84;80;
47079;PMS5003;33067;49.296;14.470;2022-10-31T01:38:39;71;63;
47079;PMS5003;33067;49.296;14.470;2022-10-31T01:41:04;52;49;
47079;PMS5003;33067;49.296;14.470;2022-10-31T01:45:54;45;41;
47079;PMS5003;33067;49.296;14.470;2022-10-31T01:48:20;52;50;
47079;PMS5003;33067;49.296;14.470;2022-10-31T01:50:45;55;50;
47079;PMS5003;33067;49.296;14.470;2022-10-31T01:53:11;55;50;
47079;PMS5003;33067;49.296;14.470;2022-10-31T01:55:37;45;42;
47079;PMS5003;33067;49.296;14.470;2022-10-31T01:58:02;45;44;
47079;PMS5003;33067;49.296;14.470;2022-10-31T02:00:27;55;49;
47079;PMS5003;33067;49.296;14.470;2022-10-31T02:02:53;54;51;
47079;PMS5003;33067;49.296;14.470;2022-10-31T02:05:18;57;53;
47079;PMS5003;33067;49.296;14.470;2022-10-31T02:07:45;54;49;
47079;PMS5003;33067;49.296;14.470;2022-10-31T02:10:09;38;37;
47079;PMS5003;33067;49.296;14.470;2022-10-31T02:12:34;44;43;
47079;PMS5003;33067;49.296;14.470;2022-10-31T02:14:59;46;44;
47079;PMS5003;33067;49.296;14.470;2022-10-31T02:17:25;43;39;
47079;PMS5003;33067;49.296;14.470;2022-10-31T02:19:51;54;48;
47079;PMS5003;33067;49.296;14.470;2022-10-31T02:22:16;48;44;
47079;PMS5003;33067;49.296;14.470;2022-10-31T02:24:44;43;41;
47079;PMS5003;33067;49.296;14.470;2022-10-31T02:27:10;58;49;
47079;PMS5003;33067;49.296;14.470;2022-10-31T02:29:38;45;44;
47079;PMS5003;33067;49.296;14.470;2022-10-31T02:31:58;40;39;
47079;PMS5003;33067;49.296;14.470;2022-10-31T02:34:23;40;40;
47079;PMS5003;33067;49.296;14.470;2022-10-31T02:36:50;42;39;
47079;PMS5003;33067;49.296;14.470;2022-10-31T02:39:15;43;41;
47079;PMS5003;33067;49.296;14.470;2022-10-31T02:41:41;33;31;
47079;PMS5003;33067;49.296;14.470;2022-10-31T02:44:05;44;41;
47079;PMS5003;33067;49.296;14.470;2022-10-31T02:46:28;35;32;
47079;PMS5003;33067;49.296;14.470;2022-10-31T02:48:54;31;31;
47079;PMS5003;33067;49.296;14.470;2022-10-31T02:51:20;34;32;
47079;PMS5003;33067;49.296;14.470;2022-10-31T02:53:45;29;27;
47079;PMS5003;33067;49.296;14.470;2022-10-31T02:56:12;35;32;
47079;PMS5003;33067;49.296;14.470;2022-10-31T02:58:36;36;32;
47079;PMS5003;33067;49.296;14.470;2022-10-31T03:01:07;38;33;
47079;PMS5003;33067;49.296;14.470;2022-10-31T03:03:28;30;30;
47079;PMS5003;33067;49.296;14.470;2022-10-31T03:05:53;31;31;
47079;PMS5003;33067;49.296;14.470;2022-10-31T03:08:20;33;29;
47079;PMS5003;33067;49.296;14.470;2022-10-31T03:13:01;28;26;
47079;PMS5003;33067;49.296;14.470;2022-10-31T03:15:25;31;30;
47079;PMS5003;33067;49.296;14.470;2022-10-31T03:17:52;26;25;
47079;PMS5003;33067;49.296;14.470;2022-10-31T03:20:15;30;28;
47079;PMS5003;33067;49.296;14.470;2022-10-31T03:22:40;27;26;
47079;PMS5003;33067;49.296;14.470;2022-10-31T03:25:06;32;27;
47079;PMS5003;33067;49.296;14.470;2022-10-31T03:27:32;31;28;
47079;PMS5003;33067;49.296;14.470;2022-10-31T03:29:57;27;25;
47079;PMS5003;33067;49.296;14.470;2022-10-31T03:32:22;33;32;
47079;PMS5003;33067;49.296;14.470;2022-10-31T03:34:47;27;26;
47079;PMS5003;33067;49.296;14.470;2022-10-31T03:37:13;32;28;
47079;PMS5003;33067;49.296;14.470;2022-10-31T03:39:38;31;28;
47079;PMS5003;33067;49.296;14.470;2022-10-31T03:42:04;34;28;
47079;PMS5003;33067;49.296;14.470;2022-10-31T03:44:28;28;28;
47079;PMS5003;33067;49.296;14.470;2022-10-31T03:46:54;27;26;
47079;PMS5003;33067;49.296;14.470;2022-10-31T03:49:20;38;34;
47079;PMS5003;33067;49.296;14.470;2022-10-31T03:51:46;33;28;
47079;PMS5003;33067;49.296;14.470;2022-10-31T03:54:12;29;28;
47079;PMS5003;33067;49.296;14.470;2022-10-31T03:56:36;33;28;
47079;PMS5003;33067;49.296;14.470;2022-10-31T03:59:03;26;25;
47079;PMS5003;33067;49.296;14.470;2022-10-31T04:01:26;34;30;
47079;PMS5003;33067;49.296;14.470;2022-10-31T04:03:52;36;31;
47079;PMS5003;33067;49.296;14.470;2022-10-31T04:06:18;28;27;
47079;PMS5003;33067;49.296;14.470;2022-10-31T04:08:44;29;27;
47079;PMS5003;33067;49.296;14.470;2022-10-31T04:11:08;38;30;
47079;PMS5003;33067;49.296;14.470;2022-10-31T04:13:34;27;26;
47079;PMS5003;33067;49.296;14.470;2022-10-31T04:15:59;29;29;
47079;PMS5003;33067;49.296;14.470;2022-10-31T04:18:25;30;29;
47079;PMS5003;33067;49.296;14.470;2022-10-31T04:23:17;29;29;
47079;PMS5003;33067;49.296;14.470;2022-10-31T04:25:41;38;35;
47079;PMS5003;33067;49.296;14.470;2022-10-31T04:28:06;31;29;
47079;PMS5003;33067;49.296;14.470;2022-10-31T04:30:32;35;32;
47079;PMS5003;33067;49.296;14.470;2022-10-31T04:32:57;37;34;
47079;PMS5003;33067;49.296;14.470;2022-10-31T04:35:22;36;29;
47079;PMS5003;33067;49.296;14.470;2022-10-31T04:37:47;33;32;
47079;PMS5003;33067;49.296;14.470;2022-10-31T04:40:13;34;29;
47079;PMS5003;33067;49.296;14.470;2022-10-31T04:42:38;35;32;
47079;PMS5003;33067;49.296;14.470;2022-10-31T04:45:04;30;27;
47079;PMS5003;33067;49.296;14.470;2022-10-31T04:47:30;35;31;
47079;PMS5003;33067;49.296;14.470;2022-10-31T04:49:54;27;24;
47079;PMS5003;33067;49.296;14.470;2022-10-31T04:52:20;23;21;
47079;PMS5003;33067;49.296;14.470;2022-10-31T04:54:45;27;25;
47079;PMS5003;33067;49.296;14.470;2022-10-31T04:57:11;33;31;
47079;PMS5003;33067;49.296;14.470;2022-10-31T04:59:36;30;28;
47079;PMS5003;33067;49.296;14.470;2022-10-31T05:02:01;34;29;
47079;PMS5003;33067;49.296;14.470;2022-10-31T05:04:27;34;27;
47079;PMS5003;33067;49.296;14.470;2022-10-31T05:06:52;28;25;
47079;PMS5003;33067;49.296;14.470;2022-10-31T05:09:17;27;25;
47079;PMS5003;33067;49.296;14.470;2022-10-31T05:11:42;24;24;
47079;PMS5003;33067;49.296;14.470;2022-10-31T05:14:08;34;31;
47079;PMS5003;33067;49.296;14.470;2022-10-31T05:16:33;25;25;
47079;PMS5003;33067;49.296;14.470;2022-10-31T05:18:58;28;27;
47079;PMS5003;33067;49.296;14.470;2022-10-31T05:21:23;34;32;
47079;PMS5003;33067;49.296;14.470;2022-10-31T05:23:49;33;29;
47079;PMS5003;33067;49.296;14.470;2022-10-31T05:26:14;31;31;
47079;PMS5003;33067;49.296;14.470;2022-10-31T05:28:40;27;27;
47079;PMS5003;33067;49.296;14.470;2022-10-31T05:31:06;32;30;
47079;PMS5003;33067;49.296;14.470;2022-10-31T05:33:31;28;27;
47079;PMS5003;33067;49.296;14.470;2022-10-31T05:35:57;23;23;
47079;PMS5003;33067;49.296;14.470;2022-10-31T05:38:22;33;30;
47079;PMS5003;33067;49.296;14.470;2022-10-31T05:40:47;27;22;
47079;PMS5003;33067;49.296;14.470;2022-10-31T05:43:13;27;25;
47079;PMS5003;33067;49.296;14.470;2022-10-31T05:45:39;36;33;
47079;PMS5003;33067;49.296;14.470;2022-10-31T05:48:04;27;20;
47079;PMS5003;33067;49.296;14.470;2022-10-31T05:50:30;28;24;
47079;PMS5003;33067;49.296;14.470;2022-10-31T05:52:56;33;32;
47079;PMS5003;33067;49.296;14.470;2022-10-31T05:55:21;30;25;
47079;PMS5003;33067;49.296;14.470;2022-10-31T05:57:46;25;25;
47079;PMS5003;33067;49.296;14.470;2022-10-31T06:00:12;27;24;
47079;PMS5003;33067;49.296;14.470;2022-10-31T06:02:37;35;31;
47079;PMS5003;33067;49.296;14.470;2022-10-31T06:05:03;28;28;
47079;PMS5003;33067;49.296;14.470;2022-10-31T06:07:32;30;30;
47079;PMS5003;33067;49.296;14.470;2022-10-31T06:09:53;29;25;
47079;PMS5003;33067;49.296;14.470;2022-10-31T06:12:19;27;25;
47079;PMS5003;33067;49.296;14.470;2022-10-31T06:14:44;35;33;
47079;PMS5003;33067;49.296;14.470;2022-10-31T06:17:10;37;29;
47079;PMS5003;33067;49.296;14.470;2022-10-31T06:19:36;34;31;
47079;PMS5003;33067;49.296;14.470;2022-10-31T06:22:01;25;24;
47079;PMS5003;33067;49.296;14.470;2022-10-31T06:24:26;29;29;
47079;PMS5003;33067;49.296;14.470;2022-10-31T06:26:52;36;30;
47079;PMS5003;33067;49.296;14.470;2022-10-31T06:29:17;31;29;
47079;PMS5003;33067;49.296;14.470;2022-10-31T06:31:43;28;27;
47079;PMS5003;33067;49.296;14.470;2022-10-31T06:34:09;30;27;
47079;PMS5003;33067;49.296;14.470;2022-10-31T06:36:34;33;30;
47079;PMS5003;33067;49.296;14.470;2022-10-31T06:39:00;29;27;
47079;PMS5003;33067;49.296;14.470;2022-10-31T06:41:25;30;30;
47079;PMS5003;33067;49.296;14.470;2022-10-31T06:43:51;28;26;
47079;PMS5003;33067;49.296;14.470;2022-10-31T06:46:15;33;28;
47079;PMS5003;33067;49.296;14.470;2022-10-31T06:48:41;30;29;
47079;PMS5003;33067;49.296;14.470;2022-10-31T06:51:07;27;24;
47079;PMS5003;33067;49.296;14.470;2022-10-31T06:53:32;38;35;
47079;PMS5003;33067;49.296;14.470;2022-10-31T06:55:58;44;42;
47079;PMS5003;33067;49.296;14.470;2022-10-31T06:58:23;44;40;
47079;PMS5003;33067;49.296;14.470;2022-10-31T07:00:49;52;50;
47079;PMS5003;33067;49.296;14.470;2022-10-31T07:03:14;47;45;
47079;PMS5003;33067;49.296;14.470;2022-10-31T07:05:39;39;36;
47079;PMS5003;33067;49.296;14.470;2022-10-31T07:08:05;34;30;
47079;PMS5003;33067;49.296;14.470;2022-10-31T07:10:31;40;39;
47079;PMS5003;33067;49.296;14.470;2022-10-31T07:12:56;37;32;
47079;PMS5003;33067;49.296;14.470;2022-10-31T07:15:21;38;30;
47079;PMS5003;33067;49.296;14.470;2022-10-31T07:17:47;63;61;
47079;PMS5003;33067;49.296;14.470;2022-10-31T07:20:13;40;36;
47079;PMS5003;33067;49.296;14.470;2022-10-31T07:22:38;35;30;
47079;PMS5003;33067;49.296;14.470;2022-10-31T07:25:03;34;30;
47079;PMS5003;33067;49.296;14.470;2022-10-31T07:27:29;32;32;
47079;PMS5003;33067;49.296;14.470;2022-10-31T07:29:54;35;30;
47079;PMS5003;33067;49.296;14.470;2022-10-31T07:32:19;46;40;
47079;PMS5003;33067;49.296;14.470;2022-10-31T07:34:45;30;29;
47079;PMS5003;33067;49.296;14.470;2022-10-31T07:37:10;41;40;
47079;PMS5003;33067;49.296;14.470;2022-10-31T07:39:36;35;35;
47079;PMS5003;33067;49.296;14.470;2022-10-31T07:42:01;32;29;
47079;PMS5003;33067;49.296;14.470;2022-10-31T07:44:27;38;33;
47079;PMS5003;33067;49.296;14.470;2022-10-31T07:46:52;40;36;
47079;PMS5003;33067;49.296;14.470;2022-10-31T07:49:17;34;31;
47079;PMS5003;33067;49.296;14.470;2022-10-31T07:51:42;35;29;
47079;PMS5003;33067;49.296;14.470;2022-10-31T07:54:08;30;30;
47079;PMS5003;33067;49.296;14.470;2022-10-31T07:56:33;37;34;
47079;PMS5003;33067;49.296;14.470;2022-10-31T07:58:59;38;33;
47079;PMS5003;33067;49.296;14.470;2022-10-31T08:01:24;54;51;
47079;PMS5003;33067;49.296;14.470;2022-10-31T08:03:49;38;35;
47079;PMS5003;33067;49.296;14.470;2022-10-31T08:06:15;37;32;
47079;PMS5003;33067;49.296;14.470;2022-10-31T08:08:41;38;33;
47079;PMS5003;33067;49.296;14.470;2022-10-31T08:11:06;35;34;
47079;PMS5003;33067;49.296;14.470;2022-10-31T08:13:31;40;37;
47079;PMS5003;33067;49.296;14.470;2022-10-31T08:15:57;41;40;
47079;PMS5003;33067;49.296;14.470;2022-10-31T08:18:22;65;60;
47079;PMS5003;33067;49.296;14.470;2022-10-31T08:20:47;55;52;
47079;PMS5003;33067;49.296;14.470;2022-10-31T08:23:13;62;60;
47079;PMS5003;33067;49.296;14.470;2022-10-31T08:25:38;54;51;
47079;PMS5003;33067;49.296;14.470;2022-10-31T08:28:04;47;47;
47079;PMS5003;33067;49.296;14.470;2022-10-31T08:30:29;76;62;
47079;PMS5003;33067;49.296;14.470;2022-10-31T08:32:58;65;61;
47079;PMS5003;33067;49.296;14.470;2022-10-31T08:35:19;73;61;
47079;PMS5003;33067;49.296;14.470;2022-10-31T08:37:44;103;96;
47079;PMS5003;33067;49.296;14.470;2022-10-31T08:40:10;104;87;
47079;PMS5003;33067;49.296;14.470;2022-10-31T08:42:35;120;113;
47079;PMS5003;33067;49.296;14.470;2022-10-31T08:45:00;56;54;
47079;PMS5003;33067;49.296;14.470;2022-10-31T08:47:26;65;60;
47079;PMS5003;33067;49.296;14.470;2022-10-31T08:49:51;75;69;
47079;PMS5003;33067;49.296;14.470;2022-10-31T08:52:17;57;52;
47079;PMS5003;33067;49.296;14.470;2022-10-31T08:54:42;56;49;
47079;PMS5003;33067;49.296;14.470;2022-10-31T08:57:08;52;46;
47079;PMS5003;33067;49.296;14.470;2022-10-31T08:59:33;59;55;
47079;PMS5003;33067;49.296;14.470;2022-10-31T09:01:59;78;69;
47079;PMS5003;33067;49.296;14.470;2022-10-31T09:04:24;122;105;
47079;PMS5003;33067;49.296;14.470;2022-10-31T09:06:49;126;105;
47079;PMS5003;33067;49.296;14.470;2022-10-31T09:09:14;61;54;
47079;PMS5003;33067;49.296;14.470;2022-10-31T09:11:40;50;47;
47079;PMS5003;33067;49.296;14.470;2022-10-31T09:14:05;39;38;
47079;PMS5003;33067;49.296;14.470;2022-10-31T09:16:31;36;36;
47079;PMS5003;33067;49.296;14.470;2022-10-31T09:18:57;40;39;
47079;PMS5003;33067;49.296;14.470;2022-10-31T09:21:22;40;38;
47079;PMS5003;33067;49.296;14.470;2022-10-31T09:23:48;341;292;
47079;PMS5003;33067;49.296;14.470;2022-10-31T09:26:14;193;174;
47079;PMS5003;33067;49.296;14.470;2022-10-31T09:28:39;166;145;
47079;PMS5003;33067;49.296;14.470;2022-10-31T09:31:04;57;55;
47079;PMS5003;33067;49.296;14.470;2022-10-31T09:33:30;46;40;
47079;PMS5003;33067;49.296;14.470;2022-10-31T09:35:57;41;40;
47079;PMS5003;33067;49.296;14.470;2022-10-31T09:38:21;50;49;
47079;PMS5003;33067;49.296;14.470;2022-10-31T09:40:47;47;44;
47079;PMS5003;33067;49.296;14.470;2022-10-31T09:43:14;57;51;
47079;PMS5003;33067;49.296;14.470;2022-10-31T09:45:39;54;47;
47079;PMS5003;33067;49.296;14.470;2022-10-31T09:48:08;58;55;
47079;PMS5003;33067;49.296;14.470;2022-10-31T09:50:29;56;52;
47079;PMS5003;33067;49.296;14.470;2022-10-31T09:52:57;61;56;
47079;PMS5003;33067;49.296;14.470;2022-10-31T09:55:20;84;75;
47079;PMS5003;33067;49.296;14.470;2022-10-31T09:57:45;87;83;
47079;PMS5003;33067;49.296;14.470;2022-10-31T10:00:14;74;65;
47079;PMS5003;33067;49.296;14.470;2022-10-31T10:02:37;72;63;
47079;PMS5003;33067;49.296;14.470;2022-10-31T10:05:03;74;67;
47079;PMS5003;33067;49.296;14.470;2022-10-31T10:07:32;74;63;
47079;PMS5003;33067;49.296;14.470;2022-10-31T10:09:53;76;67;
47079;PMS5003;33067;49.296;14.470;2022-10-31T10:12:22;74;66;
47079;PMS5003;33067;49.296;14.470;2022-10-31T10:14:49;79;68;
47079;PMS5003;33067;49.296;14.470;2022-10-31T10:17:13;70;69;
47079;PMS5003;33067;49.296;14.470;2022-10-31T10:19:41;79;68;
47079;PMS5003;33067;49.296;14.470;2022-10-31T10:22:03;84;79;
47079;PMS5003;33067;49.296;14.470;2022-10-31T10:24:30;93;90;
47079;PMS5003;33067;49.296;14.470;2022-10-31T10:26:53;78;74;
47079;PMS5003;33067;49.296;14.470;2022-10-31T10:29:22;76;71;
47079;PMS5003;33067;49.296;14.470;2022-10-31T10:31:42;89;85;
47079;PMS5003;33067;49.296;14.470;2022-10-31T10:34:10;77;73;
47079;PMS5003;33067;49.296;14.470;2022-10-31T10:36:33;90;80;
47079;PMS5003;33067;49.296;14.470;2022-10-31T10:38:59;77;67;
47079;PMS5003;33067;49.296;14.470;2022-10-31T10:41:24;76;66;
47079;PMS5003;33067;49.296;14.470;2022-10-31T10:43:49;90;80;
47079;PMS5003;33067;49.296;14.470;2022-10-31T10:46:17;75;69;
47079;PMS5003;33067;49.296;14.470;2022-10-31T10:48:42;71;69;
47079;PMS5003;33067;49.296;14.470;2022-10-31T10:51:06;71;64;
47079;PMS5003;33067;49.296;14.470;2022-10-31T10:53:36;72;68;
47079;PMS5003;33067;49.296;14.470;2022-10-31T10:55:56;84;70;
47079;PMS5003;33067;49.296;14.470;2022-10-31T10:58:21;78;74;
47079;PMS5003;33067;49.296;14.470;2022-10-31T11:00:47;87;84;
47079;PMS5003;33067;49.296;14.470;2022-10-31T11:03:12;88;81;
47079;PMS5003;33067;49.296;14.470;2022-10-31T11:05:39;92;83;
47079;PMS5003;33067;49.296;14.470;2022-10-31T11:08:03;78;74;
47079;PMS5003;33067;49.296;14.470;2022-10-31T11:10:28;80;79;
47079;PMS5003;33067;49.296;14.470;2022-10-31T11:13:03;74;66;
47079;PMS5003;33067;49.296;14.470;2022-10-31T11:15:20;74;70;
47079;PMS5003;33067;49.296;14.470;2022-10-31T11:17:47;74;70;
47079;PMS5003;33067;49.296;14.470;2022-10-31T11:22:36;55;55;
47079;PMS5003;33067;49.296;14.470;2022-10-31T11:25:11;42;41;
47079;PMS5003;33067;49.296;14.470;2022-10-31T11:27:26;42;38;
47079;PMS5003;33067;49.296;14.470;2022-10-31T11:29:52;57;54;
47079;PMS5003;33067;49.296;14.470;2022-10-31T11:32:19;48;46;
47079;PMS5003;33067;49.296;14.470;2022-10-31T11:34:43;37;36;
47079;PMS5003;33067;49.296;14.470;2022-10-31T11:37:09;35;35;
47079;PMS5003;33067;49.296;14.470;2022-10-31T11:39:38;44;41;
47079;PMS5003;33067;49.296;14.470;2022-10-31T11:41:59;53;51;
47079;PMS5003;33067;49.296;14.470;2022-10-31T11:44:25;43;40;
47079;PMS5003;33067;49.296;14.470;2022-10-31T11:46:50;35;34;
47079;PMS5003;33067;49.296;14.470;2022-10-31T11:49:16;43;43;
47079;PMS5003;33067;49.296;14.470;2022-10-31T11:51:40;38;36;
47079;PMS5003;33067;49.296;14.470;2022-10-31T11:54:05;39;35;
47079;PMS5003;33067;49.296;14.470;2022-10-31T11:56:37;42;38;
47079;PMS5003;33067;49.296;14.470;2022-10-31T11:58:57;29;29;
47079;PMS5003;33067;49.296;14.470;2022-10-31T12:01:24;37;35;
47079;PMS5003;33067;49.296;14.470;2022-10-31T12:03:51;38;32;
47079;PMS5003;33067;49.296;14.470;2022-10-31T12:06:14;43;42;
47079;PMS5003;33067;49.296;14.470;2022-10-31T12:08:39;33;32;
47079;PMS5003;33067;49.296;14.470;2022-10-31T12:11:07;26;24;
47079;PMS5003;33067;49.296;14.470;2022-10-31T12:13:32;31;30;
47079;PMS5003;33067;49.296;14.470;2022-10-31T12:15:55;31;28;
47079;PMS5003;33067;49.296;14.470;2022-10-31T12:18:27;24;24;
47079;PMS5003;33067;49.296;14.470;2022-10-31T12:20:49;28;27;
47079;PMS5003;33067;49.296;14.470;2022-10-31T12:23:16;28;28;
47079;PMS5003;33067;49.296;14.470;2022-10-31T12:25:38;30;27;
47079;PMS5003;33067;49.296;14.470;2022-10-31T12:28:04;33;33;
47079;PMS5003;33067;49.296;14.470;2022-10-31T12:30:40;40;39;
47079;PMS5003;33067;49.296;14.470;2022-10-31T12:33:00;42;41;
47079;PMS5003;33067;49.296;14.470;2022-10-31T12:35:25;32;31;
47079;PMS5003;33067;49.296;14.470;2022-10-31T12:37:49;27;27;
47079;PMS5003;33067;49.296;14.470;2022-10-31T12:42:39;34;31;
47079;PMS5003;33067;49.296;14.470;2022-10-31T12:45:07;32;28;
47079;PMS5003;33067;49.296;14.470;2022-10-31T12:49:52;32;29;
47079;PMS5003;33067;49.296;14.470;2022-10-31T12:52:20;37;32;
47079;PMS5003;33067;49.296;14.470;2022-10-31T12:54:45;37;34;
47079;PMS5003;33067;49.296;14.470;2022-10-31T12:57:10;29;29;
47079;PMS5003;33067;49.296;14.470;2022-10-31T12:59:32;28;27;
47079;PMS5003;33067;49.296;14.470;2022-10-31T13:01:59;32;29;
47079;PMS5003;33067;49.296;14.470;2022-10-31T13:04:24;37;34;
47079;PMS5003;33067;49.296;14.470;2022-10-31T13:06:49;33;30;
47079;PMS5003;33067;49.296;14.470;2022-10-31T13:09:15;31;29;
47079;PMS5003;33067;49.296;14.470;2022-10-31T13:11:40;26;25;
47079;PMS5003;33067;49.296;14.470;2022-10-31T13:14:06;30;29;
47079;PMS5003;33067;49.296;14.470;2022-10-31T13:16:30;36;35;
47079;PMS5003;33067;49.296;14.470;2022-10-31T13:18:57;30;29;
47079;PMS5003;33067;49.296;14.470;2022-10-31T13:21:21;25;24;
47079;PMS5003;33067;49.296;14.470;2022-10-31T13:23:47;31;29;
47079;PMS5003;33067;49.296;14.470;2022-10-31T13:26:12;25;24;
47079;PMS5003;33067;49.296;14.470;2022-10-31T13:28:38;22;22;
47079;PMS5003;33067;49.296;14.470;2022-10-31T13:31:02;26;26;
47079;PMS5003;33067;49.296;14.470;2022-10-31T13:33:28;23;22;
47079;PMS5003;33067;49.296;14.470;2022-10-31T13:35:54;22;22;
47079;PMS5003;33067;49.296;14.470;2022-10-31T13:38:29;27;27;
47079;PMS5003;33067;49.296;14.470;2022-10-31T13:40:44;19;19;
47079;PMS5003;33067;49.296;14.470;2022-10-31T13:43:11;23;20;
47079;PMS5003;33067;49.296;14.470;2022-10-31T13:45:33;18;18;
47079;PMS5003;33067;49.296;14.470;2022-10-31T13:47:59;21;20;
47079;PMS5003;33067;49.296;14.470;2022-10-31T13:50:24;21;21;
47079;PMS5003;33067;49.296;14.470;2022-10-31T13:52:49;25;22;
47079;PMS5003;33067;49.296;14.470;2022-10-31T13:57:41;21;20;
47079;PMS5003;33067;49.296;14.470;2022-10-31T14:00:12;30;28;
47079;PMS5003;33067;49.296;14.470;2022-10-31T14:02:33;23;20;
47079;PMS5003;33067;49.296;14.470;2022-10-31T14:04:58;20;19;
47079;PMS5003;33067;49.296;14.470;2022-10-31T14:07:23;20;19;
47079;PMS5003;33067;49.296;14.470;2022-10-31T14:09:52;28;25;
47079;PMS5003;33067;49.296;14.470;2022-10-31T14:12:22;24;23;
47079;PMS5003;33067;49.296;14.470;2022-10-31T14:14:42;21;19;
47079;PMS5003;33067;49.296;14.470;2022-10-31T14:17:05;19;19;
47079;PMS5003;33067;49.296;14.470;2022-10-31T14:19:31;20;19;
47079;PMS5003;33067;49.296;14.470;2022-10-31T14:21:56;20;20;
47079;PMS5003;33067;49.296;14.470;2022-10-31T14:24:32;18;17;
47079;PMS5003;33067;49.296;14.470;2022-10-31T14:26:51;20;17;
47079;PMS5003;33067;49.296;14.470;2022-10-31T14:29:22;25;25;
47079;PMS5003;33067;49.296;14.470;2022-10-31T14:31:39;21;20;
47079;PMS5003;33067;49.296;14.470;2022-10-31T14:34:15;18;18;
47079;PMS5003;33067;49.296;14.470;2022-10-31T14:36:32;19;18;
47079;PMS5003;33067;49.296;14.470;2022-10-31T14:38:56;21;21;
47079;PMS5003;33067;49.296;14.470;2022-10-31T14:41:25;23;22;
47079;PMS5003;33067;49.296;14.470;2022-10-31T14:43:51;23;23;
47079;PMS5003;33067;49.296;14.470;2022-10-31T14:46:14;22;20;
47079;PMS5003;33067;49.296;14.470;2022-10-31T14:48:46;25;22;
47079;PMS5003;33067;49.296;14.470;2022-10-31T14:51:07;27;25;
47079;PMS5003;33067;49.296;14.470;2022-10-31T14:53:30;21;21;
47079;PMS5003;33067;49.296;14.470;2022-10-31T14:55:55;30;30;
47079;PMS5003;33067;49.296;14.470;2022-10-31T14:58:21;26;22;
47079;PMS5003;33067;49.296;14.470;2022-10-31T15:00:45;29;29;
47079;PMS5003;33067;49.296;14.470;2022-10-31T15:03:12;23;23;
47079;PMS5003;33067;49.296;14.470;2022-10-31T15:05:41;26;25;
47079;PMS5003;33067;49.296;14.470;2022-10-31T15:08:02;29;25;
47079;PMS5003;33067;49.296;14.470;2022-10-31T15:10:28;29;28;
47079;PMS5003;33067;49.296;14.470;2022-10-31T15:12:53;22;22;
47079;PMS5003;33067;49.296;14.470;2022-10-31T15:15:19;21;21;
47079;PMS5003;33067;49.296;14.470;2022-10-31T15:17:45;22;22;
47079;PMS5003;33067;49.296;14.470;2022-10-31T15:20:10;28;24;
47079;PMS5003;33067;49.296;14.470;2022-10-31T15:22:35;25;23;
47079;PMS5003;33067;49.296;14.470;2022-10-31T15:25:01;24;22;
47079;PMS5003;33067;49.296;14.470;2022-10-31T15:27:26;30;28;
47079;PMS5003;33067;49.296;14.470;2022-10-31T15:29:51;32;29;
47079;PMS5003;33067;49.296;14.470;2022-10-31T15:32:18;32;30;
47079;PMS5003;33067;49.296;14.470;2022-10-31T15:34:42;79;76;
47079;PMS5003;33067;49.296;14.470;2022-10-31T15:37:09;47;43;
47079;PMS5003;33067;49.296;14.470;2022-10-31T15:39:32;44;38;
47079;PMS5003;33067;49.296;14.470;2022-10-31T15:41:57;37;36;
47079;PMS5003;33067;49.296;14.470;2022-10-31T15:44:23;41;41;
47079;PMS5003;33067;49.296;14.470;2022-10-31T15:46:53;49;47;
47079;PMS5003;33067;49.296;14.470;2022-10-31T15:49:18;45;41;
47079;PMS5003;33067;49.296;14.470;2022-10-31T15:51:39;60;56;
47079;PMS5003;33067;49.296;14.470;2022-10-31T15:54:04;65;64;
47079;PMS5003;33067;49.296;14.470;2022-10-31T15:56:30;71;64;
47079;PMS5003;33067;49.296;14.470;2022-10-31T15:59:00;69;65;
47079;PMS5003;33067;49.296;14.470;2022-10-31T16:01:21;50;45;
47079;PMS5003;33067;49.296;14.470;2022-10-31T16:03:54;42;39;
47079;PMS5003;33067;49.296;14.470;2022-10-31T16:08:37;28;27;